createdAt,value
2023-02-15T00:02:06.315Z,17.33
2023-02-15T00:04:48.030Z,19.17
2023-02-15T00:07:19.797Z,19.15
2023-02-15T00:09:48.542Z,19.40
2023-02-15T00:12:17.561Z,20.15
2023-02-15T00:14:45.808Z,14.45
2023-02-15T00:17:13.703Z,15.57
2023-02-15T00:19:42.111Z,18.00
2023-02-15T00:22:10.331Z,18.92
2023-02-15T00:24:39.626Z,17.52
2023-02-15T00:27:07.639Z,18.15
2023-02-15T00:29:35.632Z,17.90
2023-02-15T00:32:03.535Z,17.23
2023-02-15T00:34:31.510Z,20.35
2023-02-15T00:36:59.440Z,18.48
2023-02-15T00:39:28.304Z,17.27
2023-02-15T00:41:57.851Z,17.13
2023-02-15T00:44:25.719Z,15.15
2023-02-15T00:46:53.624Z,14.15
2023-02-15T00:49:22.434Z,14.75
2023-02-15T00:51:50.342Z,12.75
2023-02-15T00:54:18.225Z,12.10
2023-02-15T00:56:46.131Z,11.35
2023-02-15T00:59:15.559Z,11.27
2023-02-15T01:01:43.496Z,10.75
2023-02-15T01:04:11.396Z,11.52
2023-02-15T01:06:39.338Z,10.32
2023-02-15T01:09:07.434Z,10.45
2023-02-15T01:11:35.331Z,10.68
2023-02-15T01:14:04.221Z,11.13
2023-02-15T01:16:33.598Z,11.98
2023-02-15T01:19:03.535Z,11.48
2023-02-15T01:21:35.383Z,11.80
2023-02-15T01:24:04.380Z,10.75
2023-02-15T01:26:32.278Z,9.95
2023-02-15T01:29:00.391Z,11.02
2023-02-15T01:31:28.361Z,9.05
2023-02-15T01:33:57.823Z,10.20
2023-02-15T01:36:25.694Z,9.68
2023-02-15T01:38:53.659Z,10.30
2023-02-15T01:41:28.157Z,9.75
2023-02-15T01:43:58.518Z,9.98
2023-02-15T01:46:30.963Z,9.20
2023-02-15T01:49:04.185Z,10.02
2023-02-15T01:51:36.699Z,11.00
2023-02-15T01:54:11.931Z,10.45
2023-02-15T01:56:41.809Z,10.60
2023-02-15T01:59:16.954Z,11.20
2023-02-15T02:01:46.069Z,11.65
2023-02-15T02:04:19.555Z,11.88
2023-02-15T02:06:50.985Z,12.07
2023-02-15T02:09:19.102Z,12.40
2023-02-15T02:11:49.499Z,12.90
2023-02-15T02:14:18.022Z,11.82
2023-02-15T02:16:52.099Z,12.40
2023-02-15T02:20:07.130Z,12.32
2023-02-15T02:22:59.143Z,11.55
2023-02-15T02:26:09.385Z,10.65
2023-02-15T02:29:06.332Z,10.57
2023-02-15T02:31:54.041Z,10.98
2023-02-15T02:34:30.645Z,10.55
2023-02-15T02:37:04.038Z,10.98
2023-02-15T02:39:40.143Z,12.38
2023-02-15T02:42:14.486Z,11.45
2023-02-15T02:44:46.100Z,12.77
2023-02-15T02:47:18.535Z,12.50
2023-02-15T02:49:47.887Z,13.00
2023-02-15T02:52:36.943Z,12.52
2023-02-15T02:55:08.387Z,11.52
2023-02-15T02:57:42.568Z,12.07
2023-02-15T03:00:12.020Z,12.00
2023-02-15T03:02:44.211Z,11.07
2023-02-15T03:05:17.761Z,12.38
2023-02-15T03:07:48.850Z,13.27
2023-02-15T03:10:17.682Z,12.05
2023-02-15T03:12:45.846Z,12.35
2023-02-15T03:15:18.096Z,13.00
2023-02-15T03:17:50.167Z,12.10
2023-02-15T03:20:26.454Z,10.73
2023-02-15T03:23:00.381Z,11.35
2023-02-15T03:25:33.757Z,13.95
2023-02-15T03:28:05.641Z,11.18
2023-02-15T03:30:36.913Z,12.88
2023-02-15T03:33:06.881Z,11.82
2023-02-15T03:35:41.404Z,11.13
2023-02-15T03:38:11.754Z,10.93
2023-02-15T03:40:59.880Z,11.57
2023-02-15T03:43:33.542Z,10.98
2023-02-15T03:46:08.714Z,11.55
2023-02-15T03:48:41.599Z,11.48
2023-02-15T03:51:33.728Z,11.15
2023-02-15T03:54:03.941Z,9.93
2023-02-15T03:56:32.126Z,11.15
2023-02-15T03:59:17.354Z,11.32
2023-02-15T04:02:00.148Z,10.18
2023-02-15T04:04:36.391Z,10.63
2023-02-15T04:07:08.533Z,10.52
2023-02-15T04:09:54.144Z,11.07
2023-02-15T04:12:22.578Z,10.82
2023-02-15T04:15:07.817Z,11.18
2023-02-15T04:17:35.924Z,10.32
2023-02-15T04:20:21.470Z,11.40
2023-02-15T04:23:08.390Z,8.55
2023-02-15T04:25:36.346Z,10.20
2023-02-15T04:28:04.587Z,9.32
2023-02-15T04:30:32.652Z,10.13
2023-02-15T04:33:00.619Z,10.10
2023-02-15T04:35:28.792Z,10.02
2023-02-15T04:37:58.221Z,9.23
2023-02-15T04:40:26.298Z,9.93
2023-02-15T04:42:54.284Z,9.73
2023-02-15T04:45:22.162Z,9.95
2023-02-15T04:47:50.434Z,8.52
2023-02-15T04:50:18.548Z,8.68
2023-02-15T04:52:46.867Z,9.43
2023-02-15T04:55:16.319Z,10.35
2023-02-15T04:57:44.372Z,9.00
2023-02-15T05:00:13.075Z,9.93
2023-02-15T05:02:40.975Z,9.45
2023-02-15T05:05:10.517Z,8.90
2023-02-15T05:07:38.400Z,8.93
2023-02-15T05:10:07.444Z,9.68
2023-02-15T05:12:36.893Z,9.85
2023-02-15T05:15:05.157Z,9.65
2023-02-15T05:17:33.062Z,10.02
2023-02-15T05:20:01.071Z,11.48
2023-02-15T05:22:29.138Z,10.52
2023-02-15T05:25:14.770Z,11.40
2023-02-15T05:28:01.316Z,9.93
2023-02-15T05:30:29.515Z,11.90
2023-02-15T05:32:57.754Z,11.65
2023-02-15T05:35:26.009Z,11.80
2023-02-15T05:37:54.188Z,11.70
2023-02-15T05:40:22.148Z,11.73
2023-02-15T05:42:51.657Z,12.80
2023-02-15T05:45:19.836Z,12.70
2023-02-15T05:47:48.170Z,11.15
2023-02-15T05:50:16.170Z,12.70
2023-02-15T05:52:44.278Z,11.85
2023-02-15T05:55:12.432Z,13.50
2023-02-15T05:57:40.419Z,13.95
2023-02-15T06:00:11.080Z,14.57
2023-02-15T06:02:42.003Z,16.52
2023-02-15T06:05:10.224Z,16.00
2023-02-15T06:07:38.278Z,15.55
2023-02-15T06:10:07.462Z,15.38
2023-02-15T06:12:35.396Z,15.45
2023-02-15T06:15:03.395Z,15.48
2023-02-15T06:17:32.780Z,15.43
2023-02-15T06:20:00.733Z,16.58
2023-02-15T06:22:28.705Z,16.23
2023-02-15T06:24:56.655Z,15.88
2023-02-15T06:27:24.646Z,15.40
2023-02-15T06:29:52.640Z,16.92
2023-02-15T06:32:20.606Z,16.00
2023-02-15T06:34:49.889Z,16.10
2023-02-15T06:37:17.826Z,18.35
2023-02-15T06:39:45.825Z,17.90
2023-02-15T06:42:13.808Z,16.83
2023-02-15T06:44:41.877Z,17.15
2023-02-15T06:47:09.773Z,14.80
2023-02-15T06:49:37.717Z,15.07
2023-02-15T06:52:07.223Z,13.93
2023-02-15T06:54:35.159Z,12.52
2023-02-15T06:57:03.214Z,13.07
2023-02-15T06:59:31.267Z,12.32
2023-02-15T07:01:59.571Z,13.38
2023-02-15T07:04:29.639Z,14.23
2023-02-15T07:06:57.751Z,12.63
2023-02-15T07:09:27.332Z,13.93
2023-02-15T07:12:17.888Z,13.38
2023-02-15T07:14:45.927Z,12.00
2023-02-15T07:17:34.468Z,12.35
2023-02-15T07:20:01.897Z,12.65
2023-02-15T07:22:29.952Z,12.90
2023-02-15T07:24:59.679Z,13.73
2023-02-15T07:27:27.599Z,16.00
2023-02-15T07:29:55.602Z,15.52
2023-02-15T07:32:23.679Z,15.02
2023-02-15T07:34:51.624Z,16.20
2023-02-15T07:37:19.572Z,14.45
2023-02-15T07:39:47.566Z,12.27
2023-02-15T07:42:17.071Z,7.65
2023-02-15T07:44:45.046Z,14.02
2023-02-15T07:47:14.059Z,18.30
2023-02-15T07:49:42.328Z,25.40
2023-02-15T07:52:10.398Z,26.38
2023-02-15T07:54:38.394Z,25.25
2023-02-15T07:57:06.509Z,22.83
2023-02-15T07:59:35.896Z,20.50
2023-02-15T08:02:03.952Z,19.58
2023-02-15T08:04:32.142Z,17.13
2023-02-15T08:07:00.131Z,13.48
2023-02-15T08:09:28.063Z,12.00
2023-02-15T08:11:56.025Z,11.82
2023-02-15T08:14:24.231Z,10.95
2023-02-15T08:16:54.314Z,11.27
2023-02-15T08:19:24.011Z,11.68
2023-02-15T08:21:54.425Z,10.13
2023-02-15T08:24:25.283Z,10.05
2023-02-15T08:26:53.877Z,9.73
2023-02-15T08:29:24.290Z,9.07
2023-02-15T08:31:56.218Z,9.10
2023-02-15T08:34:24.451Z,8.18
2023-02-15T08:36:52.428Z,9.90
2023-02-15T08:39:20.558Z,11.85
2023-02-15T08:41:49.396Z,11.93
2023-02-15T08:44:19.213Z,11.82
2023-02-15T08:46:49.009Z,11.38
2023-02-15T08:49:21.990Z,9.50
2023-02-15T08:51:51.354Z,11.15
2023-02-15T08:54:20.839Z,13.27
2023-02-15T08:56:49.021Z,13.95
2023-02-15T08:59:19.628Z,16.95
2023-02-15T09:01:50.763Z,19.30
2023-02-15T09:04:21.097Z,18.35
2023-02-15T09:06:50.804Z,19.08
2023-02-15T09:09:19.407Z,19.02
2023-02-15T09:11:48.909Z,20.40
2023-02-15T09:14:21.006Z,17.98
2023-02-15T09:16:51.957Z,17.20
2023-02-15T09:19:23.431Z,15.02
2023-02-15T09:21:52.466Z,14.73
2023-02-15T09:24:20.534Z,13.60
2023-02-15T09:26:50.201Z,12.75
2023-02-15T09:29:19.380Z,13.15
2023-02-15T09:31:49.782Z,13.07
2023-02-15T09:34:19.928Z,12.73
2023-02-15T09:36:49.578Z,12.27
2023-02-15T09:39:20.377Z,11.73
2023-02-15T09:42:15.214Z,11.07
2023-02-15T09:45:00.170Z,12.45
2023-02-15T09:47:52.433Z,11.07
2023-02-15T09:50:28.067Z,11.68
2023-02-15T09:53:22.066Z,13.45
2023-02-15T09:55:56.621Z,12.98
2023-02-15T09:58:35.627Z,9.40
2023-02-15T10:01:11.076Z,12.85
2023-02-15T10:03:59.982Z,12.23
2023-02-15T10:06:42.744Z,11.95
2023-02-15T10:09:35.189Z,11.15
2023-02-15T10:12:30.121Z,11.95
2023-02-15T10:15:15.614Z,12.73
2023-02-15T10:17:59.103Z,10.85
2023-02-15T10:20:36.438Z,11.70
2023-02-15T10:23:19.237Z,11.15
2023-02-15T10:25:53.927Z,13.18
2023-02-15T10:28:28.838Z,12.10
2023-02-15T10:31:07.016Z,12.68
2023-02-15T10:33:41.413Z,13.63
2023-02-15T10:36:22.294Z,13.13
2023-02-15T10:38:56.483Z,12.57
2023-02-15T10:41:41.600Z,13.05
2023-02-15T10:44:26.104Z,12.38
2023-02-15T10:47:19.614Z,12.73
2023-02-15T10:50:08.487Z,13.15
2023-02-15T10:52:54.786Z,12.40
2023-02-15T10:55:32.985Z,12.13
2023-02-15T10:58:14.429Z,11.60
2023-02-15T11:00:47.522Z,12.25
2023-02-15T11:03:35.467Z,12.55
2023-02-15T11:06:08.209Z,10.88
2023-02-15T11:08:41.607Z,11.02
2023-02-15T11:11:14.514Z,12.13
2023-02-15T11:13:47.492Z,12.00
2023-02-15T11:16:18.923Z,12.30
2023-02-15T11:18:53.618Z,11.55
2023-02-15T11:21:24.359Z,11.45
2023-02-15T11:23:53.993Z,11.38
2023-02-15T11:26:29.934Z,10.90
2023-02-15T11:29:03.799Z,11.45
2023-02-15T11:31:44.462Z,11.68
2023-02-15T11:34:19.832Z,11.23
2023-02-15T11:36:51.116Z,12.10
2023-02-15T11:39:22.019Z,10.80
2023-02-15T11:41:54.903Z,11.63
2023-02-15T11:44:28.319Z,10.70
2023-02-15T11:46:56.370Z,9.77
2023-02-15T11:49:27.522Z,10.32
2023-02-15T11:51:57.165Z,10.65
2023-02-15T11:54:36.583Z,10.05
2023-02-15T11:57:16.657Z,10.68
2023-02-15T11:59:51.819Z,11.55
2023-02-15T12:02:21.902Z,11.02
2023-02-15T12:04:54.704Z,10.20
2023-02-15T12:07:27.083Z,10.30
2023-02-15T12:10:01.455Z,10.48
2023-02-15T12:12:30.853Z,10.95
2023-02-15T12:15:01.737Z,10.18
2023-02-15T12:17:32.658Z,10.75
2023-02-15T12:20:04.625Z,10.48
2023-02-15T12:22:35.007Z,10.40
2023-02-15T12:25:05.989Z,10.32
2023-02-15T12:27:36.655Z,10.60
2023-02-15T12:30:08.469Z,11.80
2023-02-15T12:32:38.435Z,11.80
2023-02-15T12:35:12.562Z,11.38
2023-02-15T12:37:40.572Z,11.57
2023-02-15T12:40:22.644Z,11.80
2023-02-15T12:42:50.807Z,11.13
2023-02-15T12:45:26.418Z,11.93
2023-02-15T12:48:18.622Z,14.68
2023-02-15T12:50:54.771Z,17.80
2023-02-15T12:53:24.865Z,21.00
2023-02-15T12:55:55.414Z,24.05
2023-02-15T12:58:26.291Z,25.40
2023-02-15T13:01:16.513Z,21.88
2023-02-15T13:03:59.849Z,20.88
2023-02-15T13:06:29.530Z,24.02
2023-02-15T13:09:00.468Z,19.80
2023-02-15T13:11:35.060Z,17.63
2023-02-15T13:14:05.516Z,17.35
2023-02-15T13:16:38.766Z,15.18
2023-02-15T13:19:13.580Z,14.90
2023-02-15T13:21:46.119Z,15.63
2023-02-15T13:24:22.941Z,13.02
2023-02-15T13:26:51.214Z,13.23
2023-02-15T13:29:24.585Z,14.32
2023-02-15T13:31:56.249Z,12.98
2023-02-15T13:34:27.822Z,12.38
2023-02-15T13:37:01.517Z,14.15
2023-02-15T13:39:36.372Z,13.38
2023-02-15T13:42:15.499Z,12.93
2023-02-15T13:45:09.154Z,14.02
2023-02-15T13:47:47.774Z,13.00
2023-02-15T13:50:32.031Z,13.10
2023-02-15T13:53:18.622Z,14.32
2023-02-15T13:55:53.088Z,14.80
2023-02-15T13:58:50.297Z,14.77
2023-02-15T14:01:28.667Z,14.43
2023-02-15T14:04:23.024Z,17.08
2023-02-15T14:07:22.392Z,17.08
2023-02-15T14:10:02.449Z,17.38
2023-02-15T14:12:43.436Z,18.55
2023-02-15T14:15:26.576Z,18.55
2023-02-15T14:18:06.192Z,18.63
2023-02-15T14:20:47.191Z,18.40
2023-02-15T14:23:31.151Z,18.08
2023-02-15T14:26:03.721Z,19.20
2023-02-15T14:28:40.454Z,17.08
2023-02-15T14:31:12.171Z,17.15
2023-02-15T14:33:43.825Z,19.08
2023-02-15T14:36:17.525Z,16.45
2023-02-15T14:39:01.920Z,17.00
2023-02-15T14:41:37.978Z,18.73
2023-02-15T14:44:14.680Z,17.58
2023-02-15T14:46:50.373Z,16.30
2023-02-15T14:49:23.004Z,16.13
2023-02-15T14:52:02.699Z,16.63
2023-02-15T14:54:59.783Z,17.63
2023-02-15T14:57:35.813Z,15.70
2023-02-15T15:00:41.963Z,14.23
2023-02-15T15:03:22.220Z,13.90
2023-02-15T15:05:53.923Z,13.52
2023-02-15T15:08:31.051Z,14.00
2023-02-15T15:10:59.688Z,12.27
2023-02-15T15:13:54.833Z,12.40
2023-02-15T15:16:49.660Z,11.23
2023-02-15T15:20:08.427Z,12.13
2023-02-15T15:22:38.272Z,13.25
2023-02-15T15:25:12.470Z,11.00
2023-02-15T15:27:46.823Z,12.82
2023-02-15T15:30:50.001Z,11.63
2023-02-15T15:33:56.613Z,12.13
2023-02-15T15:37:02.620Z,13.57
2023-02-15T15:40:19.363Z,12.88
2023-02-15T15:43:17.211Z,15.25
2023-02-15T15:46:12.652Z,14.68
2023-02-15T15:48:42.423Z,14.63
2023-02-15T15:51:20.300Z,14.32
2023-02-15T15:53:54.080Z,14.10
2023-02-15T15:56:25.559Z,13.68
2023-02-15T15:58:59.612Z,13.00
2023-02-15T16:01:30.435Z,14.68
2023-02-15T16:04:01.124Z,12.80
2023-02-15T16:06:35.121Z,11.77
2023-02-15T16:09:19.972Z,12.20
2023-02-15T16:11:49.911Z,12.93
2023-02-15T16:14:27.927Z,12.95
2023-02-15T16:16:59.339Z,12.32
2023-02-15T16:19:30.717Z,11.55
2023-02-15T16:22:01.514Z,11.13
2023-02-15T16:24:48.461Z,11.23
2023-02-15T16:27:35.446Z,12.18
2023-02-15T16:30:39.509Z,10.98
2023-02-15T16:33:09.689Z,11.60
2023-02-15T16:35:39.612Z,12.40
2023-02-15T16:38:10.973Z,12.02
2023-02-15T16:40:47.853Z,11.45
2023-02-15T16:43:25.167Z,10.40
2023-02-15T16:45:58.690Z,11.52
2023-02-15T16:48:29.366Z,10.90
2023-02-15T16:50:59.911Z,11.00
2023-02-15T16:53:30.252Z,10.45
2023-02-15T16:56:01.661Z,10.85
2023-02-15T16:58:34.380Z,10.73
2023-02-15T17:01:05.056Z,11.00
2023-02-15T17:03:33.390Z,10.30
2023-02-15T17:06:03.870Z,9.57
2023-02-15T17:08:34.090Z,9.15
2023-02-15T17:11:16.615Z,9.43
2023-02-15T17:14:23.770Z,9.18
2023-02-15T17:16:57.401Z,9.43
2023-02-15T17:19:29.104Z,8.77
2023-02-15T17:21:59.309Z,9.65
2023-02-15T17:24:37.308Z,9.82
2023-02-15T17:27:12.365Z,8.48
2023-02-15T17:29:42.994Z,8.70
2023-02-15T17:32:19.979Z,9.23
2023-02-15T17:35:11.158Z,7.97
2023-02-15T17:37:48.473Z,7.93
2023-02-15T17:40:25.181Z,8.23
2023-02-15T17:42:53.676Z,8.57
2023-02-15T17:45:22.993Z,7.55
2023-02-15T17:47:52.844Z,7.68
2023-02-15T17:50:23.328Z,7.30
2023-02-15T17:52:52.172Z,8.15
2023-02-15T17:55:40.035Z,7.47
2023-02-15T17:58:11.220Z,7.75
2023-02-15T18:01:00.471Z,7.55
2023-02-15T18:03:56.978Z,7.28
2023-02-15T18:06:42.806Z,7.72
2023-02-15T18:09:30.670Z,7.65
2023-02-15T18:11:59.678Z,8.70
2023-02-15T18:14:27.939Z,7.57
2023-02-15T18:16:56.775Z,8.45
2023-02-15T18:19:27.810Z,8.30
2023-02-15T18:21:57.767Z,8.38
2023-02-15T18:24:27.684Z,8.65
2023-02-15T18:26:56.076Z,8.40
2023-02-15T18:29:24.091Z,7.85
2023-02-15T18:31:56.967Z,8.80
2023-02-15T18:34:30.833Z,8.55
2023-02-15T18:36:59.813Z,9.27
2023-02-15T18:39:37.671Z,8.70
2023-02-15T18:42:06.192Z,8.32
2023-02-15T18:44:34.173Z,8.57
2023-02-15T18:47:02.151Z,19.75
2023-02-15T18:49:31.430Z,19.23
2023-02-15T18:51:59.451Z,25.25
2023-02-15T18:54:27.415Z,26.40
2023-02-15T18:56:57.734Z,25.65
2023-02-15T18:59:27.676Z,28.13
2023-02-15T19:01:55.821Z,28.33
2023-02-15T19:04:25.706Z,30.02
2023-02-15T19:06:55.464Z,26.35
2023-02-15T19:09:26.214Z,27.85
2023-02-15T19:11:55.791Z,26.95
2023-02-15T19:14:29.799Z,30.45
2023-02-15T19:16:59.527Z,28.67
2023-02-15T19:19:28.674Z,30.13
2023-02-15T19:21:58.094Z,27.20
2023-02-15T19:24:34.140Z,30.67
2023-02-15T19:27:02.674Z,28.48
2023-02-15T19:29:31.799Z,29.30
2023-02-15T19:32:00.243Z,27.73
2023-02-15T19:34:28.976Z,28.42
2023-02-15T19:36:58.614Z,28.50
2023-02-15T19:39:29.265Z,28.52
2023-02-15T19:41:57.298Z,29.52
2023-02-15T19:44:25.688Z,28.90
2023-02-15T19:46:54.187Z,27.13
2023-02-15T19:49:22.286Z,28.05
2023-02-15T19:51:50.523Z,27.75
2023-02-15T19:54:30.770Z,32.72
2023-02-15T19:56:59.051Z,25.75
2023-02-15T19:59:28.625Z,25.92
2023-02-15T20:01:57.086Z,21.42
2023-02-15T20:04:25.848Z,20.90
2023-02-15T20:06:56.930Z,15.98
2023-02-15T20:09:29.895Z,14.73
2023-02-15T20:11:58.127Z,15.65
2023-02-15T20:14:26.368Z,16.98
2023-02-15T20:16:54.338Z,15.75
2023-02-15T20:19:22.335Z,14.20
2023-02-15T20:21:54.442Z,14.57
2023-02-15T20:24:24.324Z,15.38
2023-02-15T20:26:53.711Z,13.68
2023-02-15T20:29:21.646Z,15.63
2023-02-15T20:31:49.778Z,17.33
2023-02-15T20:34:17.804Z,15.25
2023-02-15T20:36:45.877Z,16.75
2023-02-15T20:39:17.394Z,16.60
2023-02-15T20:41:48.341Z,15.13
2023-02-15T20:44:22.098Z,18.17
2023-02-15T20:46:52.347Z,17.33
2023-02-15T20:49:20.274Z,18.55
2023-02-15T20:51:48.563Z,21.35
2023-02-15T20:54:18.883Z,22.85
2023-02-15T20:56:47.481Z,23.63
2023-02-15T20:59:27.724Z,23.27
2023-02-15T21:02:00.386Z,24.95
2023-02-15T21:04:32.365Z,27.15
2023-02-15T21:07:00.855Z,25.10
2023-02-15T21:09:29.406Z,28.55
2023-02-15T21:11:59.693Z,30.75
2023-02-15T21:14:29.777Z,32.05
2023-02-15T21:16:57.706Z,32.55
2023-02-15T21:19:25.839Z,31.58
2023-02-15T21:21:54.743Z,29.42
2023-02-15T21:24:25.683Z,27.63
2023-02-15T21:26:55.105Z,31.77
2023-02-15T21:29:24.752Z,24.58
2023-02-15T21:31:54.326Z,24.42
2023-02-15T21:34:22.403Z,26.65
2023-02-15T21:36:51.381Z,22.83
2023-02-15T21:39:22.483Z,19.95
2023-02-15T21:42:09.536Z,18.67
2023-02-15T21:44:54.886Z,20.58
2023-02-15T21:47:43.866Z,9.75
2023-02-15T21:50:32.555Z,9.05
2023-02-15T21:53:00.691Z,10.07
2023-02-15T21:55:28.892Z,9.57
2023-02-15T21:57:57.049Z,10.02
2023-02-15T22:00:26.318Z,11.68
2023-02-15T22:02:59.172Z,11.77
2023-02-15T22:05:30.816Z,13.15
2023-02-15T22:07:59.090Z,11.88
2023-02-15T22:10:30.411Z,11.13
2023-02-15T22:13:00.609Z,11.90
2023-02-15T22:15:33.315Z,11.65
2023-02-15T22:18:02.804Z,10.63
2023-02-15T22:20:31.157Z,11.10
2023-02-15T22:22:59.072Z,10.35
2023-02-15T22:25:27.870Z,10.27
2023-02-15T22:27:56.408Z,10.90
2023-02-15T22:30:27.196Z,10.98
2023-02-15T22:32:56.078Z,10.65
2023-02-15T22:35:27.702Z,10.45
2023-02-15T22:37:56.179Z,10.10
2023-02-15T22:40:28.544Z,9.70
2023-02-15T22:42:58.038Z,9.65
2023-02-15T22:45:28.083Z,9.00
2023-02-15T22:47:59.676Z,9.25
2023-02-15T22:50:31.849Z,11.43
2023-02-15T22:53:01.912Z,13.25
2023-02-15T22:55:34.057Z,11.80
2023-02-15T22:58:02.750Z,12.43
2023-02-15T23:00:35.068Z,12.50
2023-02-15T23:03:03.154Z,12.65
2023-02-15T23:05:32.765Z,12.60
2023-02-15T23:08:00.721Z,13.32
2023-02-15T23:10:31.280Z,12.35
2023-02-15T23:13:18.936Z,10.98
2023-02-15T23:15:48.962Z,11.43
2023-02-15T23:18:19.984Z,10.88
2023-02-15T23:20:52.697Z,11.38
2023-02-15T23:23:27.162Z,9.82
2023-02-15T23:25:55.283Z,11.60
2023-02-15T23:28:26.720Z,10.52
2023-02-15T23:30:54.850Z,10.70
2023-02-15T23:33:25.140Z,10.68
2023-02-15T23:35:54.474Z,11.10
2023-02-15T23:38:27.374Z,11.57
2023-02-15T23:41:15.705Z,10.45
2023-02-15T23:43:47.534Z,10.20
2023-02-15T23:46:29.104Z,10.75
2023-02-15T23:48:57.366Z,10.60
2023-02-15T23:51:30.494Z,10.48
2023-02-15T23:53:59.248Z,10.18
2023-02-15T23:56:27.481Z,10.52
2023-02-15T23:58:55.560Z,10.90
